Time;durP1;ratioP1;P1;durP2;ratioP2;P2;SDS_P1;SDS_P2;PMS_P1;PMS_P2;Temp;Humidity;BMP_temperature;BMP_pressure;BME280_temperature;BME280_humidity;BME280_pressure;Samples;Min_cycle;Max_cycle;Signal;HPM_P1;HPM_P2
2022/01/06 00:00:25;;;;;;;;;;;;;;;10.30;39.99;101736.59;5033950;28;20011;-70
2022/01/06 00:02:51;;;;;;;;;;;;;;;10.29;40.11;101734.97;5033682;28;19951;-71
2022/01/06 00:05:17;;;;;;;;;;;;;;;10.26;40.01;101736.34;5016115;28;19917;-70
2022/01/06 00:07:43;;;;;;;;;;;;;;;10.23;40.07;101725.19;5033751;28;19920;-71
2022/01/06 00:10:12;;;;;;;;;;;;;;;10.23;40.06;101728.72;5033790;28;20585;-71
2022/01/06 00:13:00;;;;;;;;;;;;;;;10.24;39.84;101733.09;5032878;28;20016;-71
2022/01/06 00:15:44;;;;;;;;;;;;;;;10.25;40.08;101717.50;5033671;28;19913;-70
2022/01/06 00:18:18;;;;;;;;;;;;;;;10.25;39.98;101717.50;5033643;28;19925;-71
2022/01/06 00:24:02;;;;;;;;;;;;;;;10.13;39.82;101703.41;5033042;28;19974;-71
2022/01/06 00:26:22;;;;;;;;;;;;;;;10.14;39.92;101705.03;5031456;28;20016;-71
2022/01/06 00:28:47;;;;;;;;;;;;;;;10.18;39.82;101695.97;5032101;28;19923;-71
2022/01/06 00:31:13;;;;;;;;;;;;;;;10.17;39.72;101682.59;5033105;28;19917;-71
2022/01/06 00:33:38;;;;;;;;;;;;;;;10.11;39.37;101670.91;5015562;28;20379;-71
2022/01/06 00:36:04;;;;;;;;;;;;;;;10.04;39.29;101669.59;5015543;28;19995;-70
2022/01/06 00:38:30;;;;;;;;;;;;;;;10.14;39.53;101664.06;5032327;28;19917;-71
2022/01/06 00:40:56;;;;;;;;;;;;;;;10.19;39.66;101658.53;5032576;28;19923;-71
2022/01/06 00:43:23;;;;;;;;;;;;;;;10.10;39.68;101649.34;5033070;28;20020;-70
2022/01/06 00:45:49;;;;;;;;;;;;;;;10.15;39.32;101643.84;5033214;28;19925;-70
2022/01/06 00:48:15;;;;;;;;;;;;;;;10.04;39.58;101637.66;5033129;28;20300;-71
2022/01/06 00:50:42;;;;;;;;;;;;;;;10.09;39.38;101636.81;5015335;28;19917;-71
2022/01/06 00:53:08;;;;;;;;;;;;;;;10.07;39.38;101622.63;5032991;28;19944;-70
2022/01/06 00:55:35;;;;;;;;;;;;;;;10.09;39.34;101617.69;5032353;28;19961;-70
2022/01/06 00:58:01;;;;;;;;;;;;;;;10.08;39.38;101610.59;5032987;28;20377;-71
2022/01/06 01:00:31;;;;;;;;;;;;;;;10.13;39.38;101614.09;5032941;28;19966;-71
2022/01/06 01:02:57;;;;;;;;;;;;;;;10.16;39.09;101599.84;5032660;28;20323;-71
2022/01/06 01:05:22;;;;;;;;;;;;;;;10.22;38.89;101601.47;5032932;28;19917;-71
2022/01/06 01:07:48;;;;;;;;;;;;;;;10.26;38.87;101607.16;5033140;28;19925;-71
2022/01/06 01:10:14;;;;;;;;;;;;;;;10.18;38.93;101599.56;5032578;28;20372;-71
2022/01/06 01:12:46;;;;;;;;;;;;;;;10.10;39.35;101581.06;5032568;28;19923;-71
2022/01/06 01:15:18;;;;;;;;;;;;;;;10.13;38.99;101575.88;5032825;28;20367;-71
2022/01/06 01:17:45;;;;;;;;;;;;;;;10.14;38.91;101568.47;5032849;28;19924;-71
2022/01/06 01:20:11;;;;;;;;;;;;;;;10.11;39.21;101569.03;5032831;28;20401;-70
2022/01/06 01:22:36;;;;;;;;;;;;;;;9.97;39.26;101555.25;5014978;28;19921;-70
2022/01/06 01:25:02;;;;;;;;;;;;;;;9.94;38.95;101542.19;5032744;28;19924;-71
2022/01/06 01:27:34;;;;;;;;;;;;;;;10.00;39.13;101541.88;5032074;28;20391;-70
2022/01/06 01:30:04;;;;;;;;;;;;;;;9.79;38.90;101540.44;5032674;28;19918;-70
2022/01/06 01:32:34;;;;;;;;;;;;;;;9.64;39.32;101541.41;5032995;28;19917;-70
2022/01/06 01:35:01;;;;;;;;;;;;;;;9.53;39.42;101541.78;5034331;28;19921;-70
2022/01/06 01:37:28;;;;;;;;;;;;;;;9.53;39.12;101536.34;5036622;28;19917;-70
2022/01/06 01:39:53;;;;;;;;;;;;;;;9.60;38.91;101520.44;5036868;28;19921;-70
2022/01/06 01:42:20;;;;;;;;;;;;;;;9.83;38.73;101525.13;5035725;28;20268;-70
2022/01/06 01:44:48;;;;;;;;;;;;;;;9.86;38.41;101513.63;5036145;28;20414;-70
2022/01/06 01:47:15;;;;;;;;;;;;;;;9.89;38.62;101518.47;5036464;28;20007;-70
2022/01/06 01:49:55;;;;;;;;;;;;;;;9.95;38.41;101522.78;5036662;28;19995;-70
2022/01/06 01:52:20;;;;;;;;;;;;;;;10.07;38.18;101521.59;5036404;28;19924;-70
2022/01/06 01:54:46;;;;;;;;;;;;;;;9.96;38.67;101518.94;5036330;28;19913;-70
2022/01/06 01:57:11;;;;;;;;;;;;;;;10.06;38.44;101504.41;5035617;28;19917;-70
2022/01/06 01:59:38;;;;;;;;;;;;;;;10.02;38.29;101501.41;5036184;28;20379;-71
2022/01/06 02:02:04;;;;;;;;;;;;;;;9.91;38.48;101499.13;5036084;28;19917;-70
2022/01/06 02:04:29;;;;;;;;;;;;;;;9.97;38.61;101496.03;5036211;28;19917;-71
2022/01/06 02:06:55;;;;;;;;;;;;;;;10.12;38.35;101477.81;5036077;28;19921;-70
2022/01/06 02:09:21;;;;;;;;;;;;;;;10.02;38.13;101462.38;5035999;28;19945;-74
2022/01/06 02:11:47;;;;;;;;;;;;;;;10.01;38.63;101450.66;5017681;28;20434;-70
2022/01/06 02:14:12;;;;;;;;;;;;;;;10.19;38.33;101450.97;5036189;28;20012;-70
2022/01/06 02:16:38;;;;;;;;;;;;;;;10.18;38.13;101446.63;5036068;28;20338;-70
2022/01/06 02:19:04;;;;;;;;;;;;;;;10.21;38.14;101443.31;5035895;28;19952;-70
2022/01/06 02:21:29;;;;;;;;;;;;;;;10.25;38.21;101433.44;5035798;28;19921;-70
2022/01/06 02:23:55;;;;;;;;;;;;;;;10.36;38.02;101415.81;5035196;28;20298;-71
2022/01/06 02:26:21;;;;;;;;;;;;;;;10.34;38.26;101423.47;5035059;28;19921;-70
2022/01/06 02:28:46;;;;;;;;;;;;;;;10.41;38.22;101415.72;5035711;28;19922;-70
2022/01/06 02:31:13;;;;;;;;;;;;;;;10.29;38.14;101412.66;5035605;28;19917;-70
2022/01/06 02:33:39;;;;;;;;;;;;;;;10.29;38.29;101407.19;5017809;28;20007;-70
2022/01/06 02:36:05;;;;;;;;;;;;;;;10.45;38.09;101400.38;5035831;28;20047;-70
2022/01/06 02:38:30;;;;;;;;;;;;;;;10.33;38.07;101402.75;5035470;28;19970;-70
2022/01/06 02:40:56;;;;;;;;;;;;;;;10.48;38.03;101388.84;5034763;28;19941;-70
2022/01/06 02:43:24;;;;;;;;;;;;;;;10.39;38.19;101395.28;5035306;28;19924;-70
2022/01/06 02:45:50;;;;;;;;;;;;;;;10.44;38.22;101382.38;5034802;28;19925;-70
2022/01/06 02:48:16;;;;;;;;;;;;;;;10.52;37.99;101378.16;5035307;28;20394;-70
2022/01/06 02:50:43;;;;;;;;;;;;;;;10.69;37.56;101378.44;5035359;28;19947;-70
2022/01/06 02:53:09;;;;;;;;;;;;;;;10.75;37.80;101370.97;5035265;28;19925;-70
2022/01/06 02:55:36;;;;;;;;;;;;;;;10.56;38.01;101360.03;5016704;28;19996;-70
2022/01/06 02:58:02;;;;;;;;;;;;;;;10.74;37.83;101342.81;5035212;28;19917;-70
2022/01/06 03:00:28;;;;;;;;;;;;;;;10.72;38.18;101346.94;5035080;28;19923;-70
2022/01/06 03:02:53;;;;;;;;;;;;;;;10.84;37.70;101345.38;5034781;28;19917;-70
2022/01/06 03:05:19;;;;;;;;;;;;;;;10.89;37.73;101343.66;5017262;28;19925;-70
2022/01/06 03:07:45;;;;;;;;;;;;;;;10.99;37.61;101336.09;5035256;28;19992;-70
2022/01/06 03:10:13;;;;;;;;;;;;;;;11.05;37.45;101325.88;5034245;28;19917;-70
2022/01/06 03:12:39;;;;;;;;;;;;;;;11.05;37.76;101329.41;5017094;28;19974;-70
2022/01/06 03:15:18;;;;;;;;;;;;;;;11.07;37.45;101313.50;5034832;28;19917;-70
2022/01/06 03:17:48;;;;;;;;;;;;;;;11.25;37.33;101308.25;5034850;28;20000;-70
2022/01/06 03:20:15;;;;;;;;;;;;;;;11.22;37.27;101309.69;5034766;28;19917;-70
2022/01/06 03:22:41;;;;;;;;;;;;;;;11.33;37.55;101304.81;5034695;28;19987;-70
2022/01/06 03:25:07;;;;;;;;;;;;;;;11.12;37.84;101282.53;5033997;28;19917;-70
2022/01/06 03:27:33;;;;;;;;;;;;;;;11.43;37.42;101276.44;5034566;28;20406;-70
2022/01/06 03:29:58;;;;;;;;;;;;;;;11.59;37.10;101264.84;5033280;28;19956;-70
2022/01/06 03:32:24;;;;;;;;;;;;;;;11.53;37.18;101259.81;5034182;28;19919;-70
2022/01/06 03:34:50;;;;;;;;;;;;;;;11.71;36.85;101258.03;5034459;28;19996;-70
2022/01/06 03:37:17;;;;;;;;;;;;;;;11.43;37.48;101249.88;5034436;28;19917;-70
2022/01/06 03:39:43;;;;;;;;;;;;;;;11.78;36.73;101237.31;5033721;28;19917;-70
2022/01/06 03:42:09;;;;;;;;;;;;;;;11.83;37.01;101228.22;5034304;28;19927;-70
2022/01/06 03:44:35;;;;;;;;;;;;;;;11.74;37.12;101219.09;5034149;28;19921;-70
2022/01/06 03:47:00;;;;;;;;;;;;;;;11.86;37.22;101202.94;5016519;28;19923;-70
2022/01/06 03:49:26;;;;;;;;;;;;;;;11.91;36.94;101203.66;5034449;28;19917;-70
2022/01/06 03:51:51;;;;;;;;;;;;;;;12.21;36.35;101193.06;5034055;28;20411;-70
2022/01/06 03:54:17;;;;;;;;;;;;;;;11.99;36.90;101174.72;5033169;28;19936;-70
2022/01/06 03:56:42;;;;;;;;;;;;;;;12.17;36.52;101170.97;5033661;28;20268;-70
2022/01/06 03:59:08;;;;;;;;;;;;;;;12.16;36.69;101163.84;5033716;28;19921;-70
2022/01/06 04:01:33;;;;;;;;;;;;;;;11.92;37.25;101158.72;5033855;28;19917;-72
2022/01/06 04:03:59;;;;;;;;;;;;;;;12.27;36.41;101141.69;5033834;28;19921;-70
2022/01/06 04:06:24;;;;;;;;;;;;;;;12.10;36.83;101126.78;5033888;28;20439;-70
2022/01/06 04:08:50;;;;;;;;;;;;;;;12.05;37.08;101113.22;5033875;28;19948;-70
2022/01/06 04:11:15;;;;;;;;;;;;;;;12.30;36.61;101108.16;5033403;28;20075;-70
2022/01/06 04:13:40;;;;;;;;;;;;;;;12.12;36.89;101102.63;5033969;28;20367;-70
2022/01/06 04:16:12;;;;;;;;;;;;;;;12.10;36.93;101093.91;5033732;28;20367;-70
2022/01/06 04:18:39;;;;;;;;;;;;;;;12.32;36.90;101090.31;5033705;28;19970;-70
2022/01/06 04:21:06;;;;;;;;;;;;;;;12.20;37.11;101081.88;5033689;28;19925;-70
2022/01/06 04:23:32;;;;;;;;;;;;;;;12.10;37.50;101072.00;5033486;28;20302;-70
2022/01/06 04:25:57;;;;;;;;;;;;;;;12.22;37.28;101069.47;5032789;28;19918;-70
2022/01/06 04:28:22;;;;;;;;;;;;;;;11.96;37.87;101052.09;5033698;28;19925;-70
2022/01/06 04:30:48;;;;;;;;;;;;;;;12.19;37.55;101042.72;5033397;28;20036;-70
2022/01/06 04:33:13;;;;;;;;;;;;;;;12.25;37.55;101039.84;5033436;28;19925;-70
2022/01/06 04:35:39;;;;;;;;;;;;;;;12.47;37.09;101034.28;5033416;28;19952;-70
2022/01/06 04:38:04;;;;;;;;;;;;;;;12.33;37.41;101022.63;5033344;28;20494;-70
2022/01/06 04:40:29;;;;;;;;;;;;;;;12.42;37.41;101017.97;5032646;28;19917;-70
2022/01/06 04:42:55;;;;;;;;;;;;;;;12.62;37.20;101016.53;5033194;28;20031;-70
2022/01/06 04:45:20;;;;;;;;;;;;;;;12.55;37.39;101011.56;5032976;28;19921;-69
2022/01/06 04:47:45;;;;;;;;;;;;;;;12.66;37.20;101009.31;5033230;28;20006;-70
2022/01/06 04:50:11;;;;;;;;;;;;;;;12.59;37.60;100998.81;5033126;28;19913;-70
2022/01/06 04:52:37;;;;;;;;;;;;;;;12.87;37.09;101001.25;5033097;28;19925;-70
2022/01/06 04:55:02;;;;;;;;;;;;;;;12.96;37.12;100993.84;5032417;28;19917;-70
2022/01/06 04:57:28;;;;;;;;;;;;;;;12.95;37.05;100992.22;5033107;28;20476;-70
2022/01/06 04:59:53;;;;;;;;;;;;;;;12.96;37.14;100988.34;5033023;28;19917;-70
2022/01/06 05:02:18;;;;;;;;;;;;;;;12.95;37.41;100992.22;5033022;28;19948;-70
2022/01/06 05:04:45;;;;;;;;;;;;;;;12.62;37.67;100992.69;5033221;28;20268;-70
2022/01/06 05:07:11;;;;;;;;;;;;;;;12.87;37.67;100996.59;5032522;28;19922;-70
2022/01/06 05:09:36;;;;;;;;;;;;;;;13.04;37.17;100998.53;5032537;28;19924;-70
2022/01/06 05:12:01;;;;;;;;;;;;;;;13.09;37.13;100998.38;5032866;28;19917;-70
2022/01/06 05:14:27;;;;;;;;;;;;;;;13.20;37.01;100994.19;5033134;28;19917;-70
2022/01/06 05:16:55;;;;;;;;;;;;;;;13.20;37.00;100983.19;5032892;28;19917;-70
2022/01/06 05:19:21;;;;;;;;;;;;;;;13.15;37.23;100979.78;5015142;28;19924;-70
2022/01/06 05:21:46;;;;;;;;;;;;;;;13.30;37.00;100971.91;5032885;28;19917;-70
2022/01/06 05:24:14;;;;;;;;;;;;;;;13.54;36.61;100963.13;5032057;28;20372;-71
2022/01/06 05:26:40;;;;;;;;;;;;;;;13.56;36.54;100958.09;5032993;28;20008;-70
2022/01/06 05:29:06;;;;;;;;;;;;;;;13.70;36.30;100948.88;5032773;28;19960;-70
2022/01/06 05:31:32;;;;;;;;;;;;;;;13.40;36.89;100943.31;5032691;28;19925;-70
2022/01/06 05:33:57;;;;;;;;;;;;;;;13.69;36.48;100939.03;5032999;28;19917;-70
2022/01/06 05:36:22;;;;;;;;;;;;;;;13.54;36.72;100926.63;5032716;28;20314;-70
2022/01/06 05:38:48;;;;;;;;;;;;;;;13.64;36.84;100926.28;5031994;28;19928;-70
2022/01/06 05:41:13;;;;;;;;;;;;;;;13.62;36.82;100931.28;5031977;28;20402;-70
2022/01/06 05:43:39;;;;;;;;;;;;;;;13.65;36.84;100914.16;5031404;28;19924;-71
2022/01/06 05:46:04;;;;;;;;;;;;;;;13.42;37.26;100901.81;5032472;28;19921;-71
2022/01/06 05:48:29;;;;;;;;;;;;;;;13.64;36.93;100903.50;5032622;28;20004;-71
2022/01/06 05:50:55;;;;;;;;;;;;;;;13.66;37.06;100907.53;5014808;28;19917;-70
2022/01/06 05:53:21;;;;;;;;;;;;;;;13.66;36.97;100898.47;5032339;28;19924;-71
2022/01/06 05:55:47;;;;;;;;;;;;;;;13.79;36.60;100884.53;5014632;28;20371;-70
2022/01/06 05:58:12;;;;;;;;;;;;;;;13.83;36.90;100880.00;5014753;28;19917;-71
2022/01/06 06:00:37;;;;;;;;;;;;;;;13.94;36.61;100883.16;5032429;28;20088;-70
2022/01/06 06:03:03;;;;;;;;;;;;;;;13.74;37.08;100864.69;5014640;28;19980;-70
2022/01/06 06:05:28;;;;;;;;;;;;;;;13.59;37.31;100853.13;5032575;28;19925;-71
2022/01/06 06:07:54;;;;;;;;;;;;;;;13.83;37.03;100844.28;5032426;28;19917;-70
2022/01/06 06:10:19;;;;;;;;;;;;;;;13.51;37.48;100826.50;5031661;28;19917;-70
2022/01/06 06:12:44;;;;;;;;;;;;;;;13.79;37.37;100810.38;5014647;28;20314;-70
2022/01/06 06:15:10;;;;;;;;;;;;;;;13.69;37.54;100798.97;5032299;28;19917;-70
2022/01/06 06:17:35;;;;;;;;;;;;;;;13.61;37.74;100795.16;5032271;28;19949;-70
2022/01/06 06:20:01;;;;;;;;;;;;;;;13.62;37.87;100779.47;5032388;28;19924;-70
2022/01/06 06:22:26;;;;;;;;;;;;;;;13.62;37.56;100768.50;5018013;28;19924;-70
2022/01/06 06:24:51;;;;;;;;;;;;;;;13.66;37.98;100762.00;5035395;28;19924;-70
2022/01/06 06:27:18;;;;;;;;;;;;;;;13.89;37.57;100755.03;5036077;28;20039;-70
2022/01/06 06:29:43;;;;;;;;;;;;;;;13.80;37.90;100754.31;5035777;28;20426;-71
2022/01/06 06:32:08;;;;;;;;;;;;;;;13.65;38.15;100741.16;5017945;28;20291;-71
2022/01/06 06:34:34;;;;;;;;;;;;;;;13.71;38.23;100734.34;5035602;28;19923;-71
2022/01/06 06:36:59;;;;;;;;;;;;;;;13.88;38.21;100731.47;5035552;28;19917;-71
2022/01/06 06:39:25;;;;;;;;;;;;;;;13.57;39.00;100723.63;5034840;28;19952;-71
2022/01/06 06:41:51;;;;;;;;;;;;;;;14.02;38.80;100706.47;5035593;28;19917;-71
2022/01/06 06:44:16;;;;;;;;;;;;;;;14.05;39.03;100686.56;5035164;28;19928;-70
2022/01/06 06:46:42;;;;;;;;;;;;;;;14.10;38.83;100693.78;5035527;28;19917;-70
2022/01/06 06:49:07;;;;;;;;;;;;;;;13.66;40.08;100698.84;5035377;28;20355;-71
2022/01/06 06:51:33;;;;;;;;;;;;;;;13.97;39.67;100675.66;5035354;28;20379;-71
2022/01/06 06:53:58;;;;;;;;;;;;;;;14.00;39.93;100673.03;5034561;28;19975;-71
2022/01/06 06:56:23;;;;;;;;;;;;;;;13.80;40.66;100649.16;5035271;28;19939;-70
2022/01/06 06:58:49;;;;;;;;;;;;;;;13.96;40.54;100654.81;5017233;28;20019;-71
2022/01/06 07:01:14;;;;;;;;;;;;;;;14.06;40.34;100640.69;5034524;28;19917;-71
2022/01/06 07:03:40;;;;;;;;;;;;;;;13.94;41.15;100638.69;5035053;28;19917;-70
2022/01/06 07:06:05;;;;;;;;;;;;;;;13.99;41.03;100619.25;5034389;28;19924;-70
2022/01/06 07:08:31;;;;;;;;;;;;;;;14.08;41.13;100611.72;5033710;28;19924;-70
2022/01/06 07:10:56;;;;;;;;;;;;;;;14.00;41.17;100609.88;5035212;28;19917;-71
2022/01/06 07:13:22;;;;;;;;;;;;;;;13.91;41.70;100605.59;5034854;28;20426;-71
2022/01/06 07:15:47;;;;;;;;;;;;;;;13.88;42.09;100602.38;5035180;28;19917;-71
2022/01/06 07:18:13;;;;;;;;;;;;;;;14.04;42.03;100590.75;5035036;28;20338;-70
2022/01/06 07:20:38;;;;;;;;;;;;;;;14.02;42.09;100584.78;5034902;28;20418;-71
2022/01/06 07:23:04;;;;;;;;;;;;;;;13.95;42.44;100576.31;5030387;28;19948;-70
2022/01/06 07:25:29;;;;;;;;;;;;;;;13.58;43.71;100576.19;5018021;28;19917;-70
2022/01/06 07:27:55;;;;;;;;;;;;;;;13.87;43.21;100564.25;5014214;28;19947;-70
2022/01/06 07:30:21;;;;;;;;;;;;;;;14.06;42.70;100552.75;5034112;28;19944;-71
2022/01/06 07:32:47;;;;;;;;;;;;;;;13.75;43.97;100548.56;5033414;28;20385;-70
2022/01/06 07:35:13;;;;;;;;;;;;;;;13.77;44.05;100540.00;5032174;28;19928;-70
2022/01/06 07:37:38;;;;;;;;;;;;;;;13.83;44.30;100539.44;5001827;28;19925;-71
2022/01/06 07:40:05;;;;;;;;;;;;;;;13.69;44.73;100527.16;5019575;28;19917;-72
2022/01/06 07:42:30;;;;;;;;;;;;;;;13.80;44.56;100523.63;5020026;28;20011;-70
2022/01/06 07:44:58;;;;;;;;;;;;;;;13.66;45.30;100516.84;5018382;28;19936;-71
2022/01/06 07:47:24;;;;;;;;;;;;;;;14.05;44.32;100512.69;5024032;28;19928;-70
2022/01/06 07:49:50;;;;;;;;;;;;;;;13.81;45.11;100503.25;5024507;28;19921;-71
2022/01/06 07:52:16;;;;;;;;;;;;;;;13.92;44.75;100505.59;5023646;28;19991;-71
2022/01/06 07:54:41;;;;;;;;;;;;;;;13.64;45.61;100484.22;5023556;28;20376;-71
2022/01/06 07:57:06;;;;;;;;;;;;;;;12.97;47.50;100477.88;5006597;28;19919;-70
2022/01/06 07:59:32;;;;;;;;;;;;;;;13.51;46.76;100477.09;5014031;28;19917;-70
2022/01/06 08:01:57;;;;;;;;;;;;;;;13.66;46.18;100470.16;5053813;28;19917;-70
2022/01/06 08:04:23;;;;;;;;;;;;;;;13.75;45.97;100449.72;5053422;28;19960;-70
2022/01/06 08:06:48;;;;;;;;;;;;;;;13.70;46.30;100449.13;5053537;28;19974;-70
2022/01/06 08:09:13;;;;;;;;;;;;;;;13.85;46.25;100443.78;5033525;28;19917;-70
2022/01/06 08:11:40;;;;;;;;;;;;;;;13.52;47.12;100432.84;5033913;28;19925;-70
2022/01/06 08:14:06;;;;;;;;;;;;;;;13.86;46.25;100417.91;5033865;28;19917;-70
2022/01/06 08:16:31;;;;;;;;;;;;;;;13.66;46.62;100412.50;5033629;28;20379;-71
2022/01/06 08:18:57;;;;;;;;;;;;;;;13.78;46.64;100423.50;5015680;28;19947;-70
2022/01/06 08:21:22;;;;;;;;;;;;;;;13.91;46.60;100400.41;5033424;28;19924;-70
2022/01/06 08:23:47;;;;;;;;;;;;;;;14.08;46.24;100402.13;5032864;28;19917;-70
2022/01/06 08:26:14;;;;;;;;;;;;;;;14.14;46.14;100389.75;5015158;28;19917;-72
2022/01/06 08:28:39;;;;;;;;;;;;;;;14.11;46.39;100382.97;5028267;28;19917;-71
2022/01/06 08:31:05;;;;;;;;;;;;;;;14.33;45.89;100378.16;5005723;28;19925;-71
2022/01/06 08:33:31;;;;;;;;;;;;;;;14.24;45.78;100361.00;5022750;28;19931;-73
2022/01/06 08:35:57;;;;;;;;;;;;;;;14.05;46.49;100348.66;5021698;28;20372;-71
2022/01/06 08:38:22;;;;;;;;;;;;;;;14.11;46.49;100332.72;5023899;28;19975;-70
2022/01/06 08:40:48;;;;;;;;;;;;;;;14.36;46.09;100337.03;5022221;28;19921;-71
2022/01/06 08:43:13;;;;;;;;;;;;;;;14.45;45.75;100328.66;5025758;28;19974;-79
2022/01/06 08:45:39;;;;;;;;;;;;;;;14.54;45.75;100325.78;5001984;28;20462;-73
2022/01/06 08:48:04;;;;;;;;;;;;;;;14.24;46.60;100306.84;5019195;28;19967;-71
2022/01/06 08:50:30;;;;;;;;;;;;;;;14.46;45.92;100307.47;5020600;28;21109;-70
2022/01/06 08:52:56;;;;;;;;;;;;;;;14.51;46.06;100297.03;5022834;28;20008;-72
2022/01/06 08:55:22;;;;;;;;;;;;;;;14.49;45.97;100296.56;5023126;28;19917;-72
2022/01/06 08:57:47;;;;;;;;;;;;;;;14.34;46.54;100289.03;5020988;28;19914;-70
2022/01/06 09:00:13;;;;;;;;;;;;;;;14.19;47.12;100282.34;5022308;28;19917;-73
2022/01/06 09:02:38;;;;;;;;;;;;;;;14.60;46.32;100274.91;5013888;28;20406;-76
2022/01/06 09:05:06;;;;;;;;;;;;;;;14.59;46.33;100271.34;5016627;28;19929;-71
2022/01/06 09:07:34;;;;;;;;;;;;;;;14.70;46.11;100268.88;5018444;28;20386;-74
2022/01/06 09:10:00;;;;;;;;;;;;;;;14.74;45.88;100269.00;5017515;28;19948;-76
2022/01/06 09:12:25;;;;;;;;;;;;;;;14.27;47.48;100256.66;4999224;28;19917;-72
2022/01/06 09:14:51;;;;;;;;;;;;;;;14.68;46.53;100262.94;4999669;28;20419;-71
2022/01/06 09:17:16;;;;;;;;;;;;;;;14.84;45.82;100246.47;5015069;28;19925;-71
2022/01/06 09:19:43;;;;;;;;;;;;;;;14.75;46.44;100252.13;5022562;28;20381;-76
2022/01/06 09:22:08;;;;;;;;;;;;;;;14.74;46.21;100238.75;5022497;28;19949;-71
2022/01/06 09:24:34;;;;;;;;;;;;;;;14.77;46.30;100225.06;5030415;28;20374;-74
2022/01/06 09:26:59;;;;;;;;;;;;;;;14.63;46.55;100233.75;5026035;28;19925;-77
2022/01/06 09:29:25;;;;;;;;;;;;;;;14.86;46.04;100211.94;5017472;28;19992;-76
2022/01/06 09:31:50;;;;;;;;;;;;;;;14.96;46.06;100216.09;4998669;28;19935;-77
2022/01/06 09:34:17;;;;;;;;;;;;;;;14.90;46.10;100206.53;5018102;28;19939;-77
2022/01/06 09:36:42;;;;;;;;;;;;;;;15.14;45.62;100209.09;5018220;28;20392;-78
2022/01/06 09:39:09;;;;;;;;;;;;;;;15.14;45.75;100194.53;4997837;28;19921;-77
2022/01/06 09:41:34;;;;;;;;;;;;;;;15.22;45.49;100190.81;5022516;28;20001;-78
2022/01/06 09:44:00;;;;;;;;;;;;;;;15.26;45.50;100186.16;5020635;28;20288;-77
2022/01/06 09:46:26;;;;;;;;;;;;;;;15.20;45.81;100184.88;5018384;28;19979;-77
2022/01/06 09:48:57;;;;;;;;;;;;;;;15.19;46.12;100183.28;5020217;28;20589;-77
2022/01/06 09:51:23;;;;;;;;;;;;;;;15.38;45.76;100166.78;5004099;28;20043;-77
2022/01/06 09:53:49;;;;;;;;;;;;;;;15.48;46.08;100176.44;5007438;28;20013;-84
2022/01/06 09:56:14;;;;;;;;;;;;;;;15.80;45.45;100172.47;5011358;28;20481;-77
2022/01/06 09:58:40;;;;;;;;;;;;;;;15.82;46.21;100161.09;5013632;28;19917;-83
2022/01/06 10:01:05;;;;;;;;;;;;;;;15.91;46.40;100164.41;5026103;28;20276;-76
2022/01/06 10:03:37;;;;;;;;;;;;;;;15.95;46.98;100168.06;5002187;28;19988;-84
2022/01/06 10:06:10;;;;;;;;;;;;;;;15.91;47.43;100149.84;5007560;28;20509;-80
2022/01/06 10:08:36;;;;;;;;;;;;;;;16.23;46.75;100150.47;5024195;28;19917;-79
2022/01/06 10:11:08;;;;;;;;;;;;;;;16.41;46.61;100159.09;5030264;28;19918;-76
2022/01/06 10:13:34;;;;;;;;;;;;;;;16.14;47.60;100155.41;5024158;28;19924;-77
2022/01/06 10:16:10;;;;;;;;;;;;;;;16.37;47.25;100146.00;5023796;28;19952;-77
2022/01/06 10:18:35;;;;;;;;;;;;;;;16.44;47.11;100150.88;5031675;28;20287;-78
2022/01/06 10:21:10;;;;;;;;;;;;;;;16.45;47.58;100141.41;5022272;28;20004;-77
2022/01/06 10:23:36;;;;;;;;;;;;;;;16.66;46.88;100146.53;5005149;28;19972;-88
2022/01/06 10:26:10;;;;;;;;;;;;;;;16.73;46.96;100152.19;5021696;28;19921;-78
2022/01/06 10:28:36;;;;;;;;;;;;;;;16.91;46.61;100156.03;5025977;28;19969;-78
2022/01/06 10:31:05;;;;;;;;;;;;;;;17.08;46.08;100154.75;5020345;28;19924;-78
2022/01/06 10:33:39;;;;;;;;;;;;;;;16.83;46.90;100135.00;5007064;28;20442;-78
2022/01/06 10:36:07;;;;;;;;;;;;;;;16.90;46.93;100132.34;5027077;28;19917;-81
2022/01/06 10:38:32;;;;;;;;;;;;;;;16.81;47.40;100145.63;5024745;28;19921;-85
2022/01/06 10:41:15;;;;;;;;;;;;;;;17.12;46.79;100147.28;5023457;28;20397;-85
2022/01/06 10:43:40;;;;;;;;;;;;;;;17.12;46.33;100158.34;5005299;28;20391;-81
2022/01/06 10:46:06;;;;;;;;;;;;;;;16.81;47.72;100187.00;5023822;28;19917;-84
2022/01/06 10:48:31;;;;;;;;;;;;;;;17.16;46.50;100163.91;5024878;28;19917;-77
2022/01/06 10:51:00;;;;;;;;;;;;;;;17.11;47.29;100147.66;5025831;28;19971;-84
2022/01/06 10:53:26;;;;;;;;;;;;;;;17.24;46.65;100121.44;5029743;28;20413;-78
2022/01/06 10:55:51;;;;;;;;;;;;;;;17.28;46.25;100105.72;5024660;28;19917;-77
2022/01/06 10:58:18;;;;;;;;;;;;;;;17.14;46.21;100089.75;5022657;28;19933;-78
2022/01/06 11:00:52;;;;;;;;;;;;;;;17.25;45.66;100091.88;5025547;28;19932;-78
2022/01/06 11:03:19;;;;;;;;;;;;;;;17.14;45.87;100089.75;5023848;28;19922;-78
2022/01/06 11:05:52;;;;;;;;;;;;;;;16.92;46.83;100094.16;5021959;28;19941;-78
2022/01/06 11:08:20;;;;;;;;;;;;;;;17.24;45.94;100084.75;5023787;28;19913;-84
2022/01/06 11:10:49;;;;;;;;;;;;;;;17.22;46.17;100087.06;5021539;28;19917;-77
2022/01/06 11:13:16;;;;;;;;;;;;;;;17.32;46.14;100084.47;5024128;28;19913;-83
2022/01/06 11:15:41;;;;;;;;;;;;;;;17.40;45.89;100090.91;5025299;28;19974;-77
2022/01/06 11:18:07;;;;;;;;;;;;;;;17.37;45.91;100086.91;5021009;28;20011;-78
2022/01/06 11:20:32;;;;;;;;;;;;;;;17.51;45.55;100088.25;5023899;28;19932;-77
2022/01/06 11:22:58;;;;;;;;;;;;;;;17.45;45.68;100085.81;5025137;28;19933;-83
2022/01/06 11:25:39;;;;;;;;;;;;;;;17.36;45.99;100084.50;5007420;28;19924;-77
2022/01/06 11:28:07;;;;;;;;;;;;;;;17.24;46.61;100082.00;5024024;28;19918;-81
2022/01/06 11:30:45;;;;;;;;;;;;;;;17.49;45.94;100083.13;5023011;28;20000;-78
2022/01/06 11:33:11;;;;;;;;;;;;;;;17.32;46.05;100084.47;5019789;28;19918;-85
2022/01/06 11:35:53;;;;;;;;;;;;;;;17.46;45.71;100078.34;5022258;28;19928;-86
2022/01/06 11:38:25;;;;;;;;;;;;;;;17.45;45.65;100072.00;5020281;28;19983;-81
2022/01/06 11:40:52;;;;;;;;;;;;;;;17.37;45.65;100075.84;5017422;28;20004;-78
2022/01/06 11:43:18;;;;;;;;;;;;;;;17.24;45.96;100071.75;4999703;28;20012;-78
2022/01/06 11:45:43;;;;;;;;;;;;;;;17.53;45.33;100061.84;5028831;28;19925;-83
2022/01/06 11:48:10;;;;;;;;;;;;;;;17.50;45.51;100061.81;5022703;28;19971;-77
2022/01/06 11:50:37;;;;;;;;;;;;;;;17.38;45.50;100060.06;5019836;28;19918;-84
2022/01/06 11:53:04;;;;;;;;;;;;;;;17.59;45.25;100051.25;5027874;28;20079;-84
2022/01/06 11:55:34;;;;;;;;;;;;;;;17.72;45.08;100053.44;5019561;28;19919;-85
2022/01/06 11:58:29;;;;;;;;;;;;;;;17.67;45.05;100053.72;5029926;28;19917;-87
2022/01/06 12:00:56;;;;;;;;;;;;;;;17.69;45.16;100045.88;5008420;28;19979;-79
2022/01/06 12:03:21;;;;;;;;;;;;;;;17.74;44.99;100053.03;5024453;28;19957;-83
2022/01/06 12:05:49;;;;;;;;;;;;;;;17.81;44.89;100049.56;5019171;28;19968;-84
2022/01/06 12:08:18;;;;;;;;;;;;;;;17.82;44.99;100048.38;5022469;28;19924;-78
2022/01/06 12:10:45;;;;;;;;;;;;;;;17.70;45.08;100044.72;5022230;28;19925;-83
2022/01/06 12:13:11;;;;;;;;;;;;;;;17.81;45.09;100038.50;5030656;28;20380;-76
2022/01/06 12:15:56;;;;;;;;;;;;;;;17.62;45.44;100022.91;5015640;28;19922;-76
2022/01/06 12:18:26;;;;;;;;;;;;;;;17.86;44.96;100029.91;5032877;28;19917;-76
2022/01/06 12:20:52;;;;;;;;;;;;;;;17.79;45.17;100024.28;5026528;28;19925;-75
2022/01/06 12:23:18;;;;;;;;;;;;;;;17.92;44.65;100028.38;5025911;28;19921;-83
2022/01/06 12:25:47;;;;;;;;;;;;;;;17.98;44.68;100033.16;5028433;28;19967;-90
2022/01/06 12:28:13;;;;;;;;;;;;;;;17.93;44.75;100038.25;5020494;28;19963;-80
2022/01/06 12:30:38;;;;;;;;;;;;;;;18.09;44.46;100030.50;5010038;28;20004;-82
2022/01/06 12:33:07;;;;;;;;;;;;;;;18.10;44.47;100023.00;5017771;28;19924;-79
2022/01/06 12:35:37;;;;;;;;;;;;;;;18.18;44.15;100024.66;5029495;28;19925;-79
2022/01/06 12:38:02;;;;;;;;;;;;;;;18.11;44.23;100024.59;5006339;28;19925;-84